Patton Village, California
Current Conditions -  °F | °C
As of 1:55 AM on Saturday 01 Nov 2014 (Local Time) from KRTS Reporting Station
Light Rain Light Rain  
Wind Chill: 33°   Ceiling: 2300
Heat Index: 37°   Visibility: 5mi
Dew Point: 36°   Wind: 6mph
Humidity: 93%   Direction: 360°N
Pressure: 29.67"   Gusts: NA
Location:  40.3266°N, 120.122°W
Report Text: KRTS 010855Z AUTO 36005KT 5SM -RA OVC023 03/02 A2967 RMK AO2
Loading
Personal Weather Stations






























Interactive Weather Map
Tropical Storm Tracking
New forecast layout! Learn more

10-Day Weather Forecast

Advertisements
Track Severe Weather on mobile